Accueil
METAR-TAF:

METAR-TAF

Aéroports :

Aéroport international de Münster/Osnabrück

Münster-Osnabrück, Allemagne

latitude: 52-08N, longitude: 007-42E, altitude: 48 m

Observation

Le bulletin a été fait il y a 34 minutes, à 11:50 UTC
Vent 7 kt de ouest avec des rafales jusqu'à 18 kt, variant entre sud/sud-ouest et nord
Température 24°C
Humidité 38%
Pression 1018 hPa
Visibilité 10 km ou plus
pas de nuages en-dessous de 1500 mètres et pas de cumulonimbus.

METAR: EDDG 181150Z 27007G18KT 210V360 CAVOK 24/09 Q1018 NOSIG

Heure: 14:24 (12:24 UTC)

Prévision

Le bulletin a été fait il y a 1 heure et 24 minutes, à 11:00 UTC
Prévision valable du 18 à 12 UTC au 19 à 12 UTC
Vent 8 kt de nord-ouest
Visibilité 10 km ou plus
pas de nuages en-dessous de 1500 mètres et pas de cumulonimbus.
Evoluant progressivement
du 18 à 18 UTC au 18 à 21 UTC
Vent 3 kt de direction variable

TAF: EDDG 181100Z 1812/1912 31008KT CAVOK BECMG 1818/1821 VRB03KT

Observations et prévisions météorologiques de plus de 4000 aéroports (messages METAR et TAF).

Les stations disponibles sont représentées par des disques jaunes et rouges sur la carte.

Passer la souris dessus pour voir le nom de la station.

Cliquer dessus pour voir les observations et prévisions météorologiques.

Pour changer de carte: cliquez sur les boutons verts avec une croix noire pour zoomer, sur le bouton vert avec un tiret pour effectuer un zoom arrière, ou sur les flèches vertes pour les cartes adjacentes.


METAR-TAF: